SBCZ/CZS METAR and TAF weather

Enter ICAO airport designator
Station Type Date Time Source
SBCZ METAR 2019/05/20 06:45 UTC NOAA

SBCZ 200645Z 00000KT CAVOK 22/22 Q1012


Station Type Date Time Source
SBCZ Decoded METAR 2019/05/20 06:45 UTC NOAA

Cruzeiro Do Sul, Brazil (SBCZ) 07-38S 072-40W
May 20, 2019 - 02:45 AM EDT / 2019.05.20 0645 UTC
Wind: Calm:0
Visibility: greater than 7 mile(s):0
Temperature: 71 F (22 C)
Dew Point: 71 F (22 C)
Relative Humidity: 100%
Pressure (altimeter): 29.88 in. Hg (1012 hPa)
ob: SBCZ 200645Z 00000KT CAVOK 22/22 Q1012
cycle: 7

Station Type Date Time Source
SBCZ TAF 2019/05/20 12:45 UTC NOAA

TAF SBCZ 201000Z 2012/2112 00000KT CAVOK TX30/2018Z TN22/2108Z
BECMG 2013/2014 24005KT 9999 FEW015
BECMG 2016/2018 BKN025
BECMG 2022/2024 00000KT F EW030
RMK PCQ

Example: see airport list